createdAt,value
2023-04-12T00:00:18.085Z,81.99
2023-04-12T00:05:22.990Z,81.98
2023-04-12T00:10:26.272Z,82.39
2023-04-12T00:15:29.215Z,82.67
2023-04-12T00:20:32.588Z,83.04
2023-04-12T00:25:38.752Z,82.46
2023-04-12T00:30:42.013Z,82.38
2023-04-12T00:35:44.991Z,82.61
2023-04-12T00:40:48.493Z,83.44
2023-04-12T00:45:51.601Z,83.53
2023-04-12T00:50:57.969Z,83.78
2023-04-12T00:56:01.901Z,83.87
2023-04-12T01:01:05.823Z,84.15
2023-04-12T01:06:48.499Z,84.53
2023-04-12T01:12:28.520Z,84.44
2023-04-12T01:17:38.515Z,84.40
2023-04-12T01:23:14.966Z,84.49
2023-04-12T01:28:33.781Z,84.96
2023-04-12T01:33:39.812Z,85.05
2023-04-12T01:38:43.751Z,84.73
2023-04-12T01:43:48.070Z,84.48
2023-04-12T01:48:53.611Z,84.52
2023-04-12T01:54:13.269Z,83.88
2023-04-12T01:59:17.866Z,83.42
2023-04-12T02:04:22.297Z,83.05
2023-04-12T02:09:25.212Z,82.53
2023-04-12T02:14:28.645Z,82.25
2023-04-12T02:19:32.851Z,81.97
2023-04-12T02:24:35.954Z,82.17
2023-04-12T02:29:39.033Z,82.91
2023-04-12T02:34:42.369Z,83.33
2023-04-12T02:39:45.316Z,83.73
2023-04-12T02:44:48.752Z,84.10
2023-04-12T02:49:51.536Z,84.74
2023-04-12T02:54:55.081Z,85.17
2023-04-12T02:59:58.158Z,85.58
2023-04-12T03:05:03.584Z,85.32
2023-04-12T03:10:07.754Z,84.87
2023-04-12T03:15:11.245Z,84.94
2023-04-12T03:20:14.965Z,84.50
2023-04-12T03:25:18.851Z,83.83
2023-04-12T03:30:21.946Z,83.67
2023-04-12T03:35:25.024Z,83.33
2023-04-12T03:40:27.950Z,82.72
2023-04-12T03:45:31.108Z,82.35
2023-04-12T03:50:42.420Z,82.41
2023-04-12T03:55:45.392Z,82.36
2023-04-12T04:00:49.177Z,82.19
2023-04-12T04:05:52.302Z,82.40
2023-04-12T04:10:58.006Z,82.79
2023-04-12T04:16:05.847Z,82.69
2023-04-12T04:21:09.140Z,82.58
2023-04-12T04:26:12.601Z,82.30
2023-04-12T04:31:17.684Z,82.37
2023-04-12T04:36:20.952Z,81.95
2023-04-12T04:41:24.421Z,82.12
2023-04-12T04:46:30.631Z,81.91
2023-04-12T04:51:33.708Z,81.94
2023-04-12T04:56:36.694Z,81.72
2023-04-12T05:01:41.582Z,81.38
2023-04-12T05:06:46.554Z,80.35
2023-04-12T05:11:49.446Z,79.82
2023-04-12T05:16:52.433Z,79.33
2023-04-12T05:21:55.393Z,78.98
2023-04-12T05:26:58.986Z,78.12
2023-04-12T05:32:02.649Z,76.13
2023-04-12T05:37:06.101Z,73.69
2023-04-12T05:42:10.383Z,70.97
2023-04-12T05:47:13.432Z,69.83
2023-04-12T05:52:16.591Z,68.57
2023-04-12T05:57:19.793Z,66.83
2023-04-12T06:02:26.063Z,65.85
2023-04-12T06:07:30.178Z,65.79
2023-04-12T06:12:33.451Z,65.29
2023-04-12T06:17:37.839Z,64.86
2023-04-12T06:22:40.887Z,63.54
2023-04-12T06:27:44.045Z,63.32
2023-04-12T06:32:47.071Z,63.73
2023-04-12T06:37:50.419Z,63.83
2023-04-12T06:42:53.376Z,63.35
2023-04-12T06:47:57.264Z,64.61
2023-04-12T06:53:00.104Z,63.75
2023-04-12T06:58:03.067Z,62.91
2023-04-12T07:03:06.092Z,64.61
2023-04-12T07:08:09.615Z,64.19
2023-04-12T07:13:12.488Z,64.56
2023-04-12T07:18:15.528Z,63.60
2023-04-12T07:23:18.623Z,62.76
2023-04-12T07:28:21.619Z,64.63
2023-04-12T07:33:26.561Z,65.12
2023-04-12T07:38:29.686Z,63.25
2023-04-12T07:43:32.592Z,60.20
2023-04-12T07:48:35.736Z,57.04
2023-04-12T07:53:39.517Z,53.36
2023-04-12T07:58:42.706Z,50.22
2023-04-12T08:03:46.902Z,50.56
2023-04-12T08:08:50.030Z,47.79
2023-04-12T08:13:53.433Z,48.28
2023-04-12T08:18:57.300Z,49.21
2023-04-12T08:24:00.481Z,49.62
2023-04-12T08:29:03.452Z,51.00
2023-04-12T08:34:06.430Z,51.59
2023-04-12T08:39:09.582Z,52.54
2023-04-12T08:44:13.334Z,50.14
2023-04-12T08:49:16.931Z,48.05
2023-04-12T08:54:19.888Z,47.18
2023-04-12T08:59:23.104Z,46.16
2023-04-12T09:04:26.858Z,42.78
2023-04-12T09:09:46.708Z,42.28
2023-04-12T09:15:10.309Z,41.47
2023-04-12T09:20:16.001Z,39.20
2023-04-12T09:25:19.031Z,39.41
2023-04-12T09:30:21.951Z,37.02
2023-04-12T09:35:37.105Z,35.53
2023-04-12T09:40:40.420Z,34.53
2023-04-12T09:45:43.190Z,34.41
2023-04-12T09:50:46.265Z,35.32
2023-04-12T09:55:51.461Z,36.34
2023-04-12T10:00:57.123Z,35.77
2023-04-12T10:06:00.195Z,36.46
2023-04-12T10:11:03.435Z,38.45
2023-04-12T10:16:09.535Z,35.84
2023-04-12T10:21:13.223Z,38.64
2023-04-12T10:26:17.115Z,37.09
2023-04-12T10:31:30.810Z,35.65
2023-04-12T10:36:57.332Z,36.84
2023-04-12T10:42:30.709Z,36.55
2023-04-12T10:47:59.088Z,35.26
2023-04-12T10:53:12.847Z,35.28
2023-04-12T10:58:48.032Z,33.88
2023-04-12T11:04:10.022Z,33.54
2023-04-12T11:09:34.452Z,33.57
2023-04-12T11:14:49.156Z,32.87
2023-04-12T11:19:55.660Z,32.95
2023-04-12T11:25:01.099Z,31.14
2023-04-12T11:30:04.710Z,32.37
2023-04-12T11:35:08.784Z,31.81
2023-04-12T11:40:12.136Z,30.24
2023-04-12T11:45:20.208Z,30.96
2023-04-12T11:50:31.521Z,30.11
2023-04-12T11:55:34.401Z,30.29
2023-04-12T12:00:38.141Z,30.02
2023-04-12T12:05:42.877Z,29.86
2023-04-12T12:15:55.199Z,28.62
2023-04-12T12:20:58.210Z,29.74
2023-04-12T12:26:17.489Z,28.34
2023-04-12T12:31:24.007Z,28.03
2023-04-12T12:36:34.586Z,28.84
2023-04-12T12:41:38.893Z,27.71
2023-04-12T12:51:47.701Z,26.82
2023-04-12T12:56:52.752Z,27.69
2023-04-12T13:01:55.920Z,27.18
2023-04-12T13:06:58.810Z,25.29
2023-04-12T13:12:02.306Z,27.32
2023-04-12T13:17:05.849Z,26.76
2023-04-12T13:22:09.062Z,27.02
2023-04-12T13:27:15.226Z,26.27
2023-04-12T13:32:18.677Z,26.43
2023-04-12T13:37:21.692Z,26.64
2023-04-12T13:42:24.687Z,27.00
2023-04-12T13:47:28.206Z,26.14
2023-04-12T13:52:31.309Z,26.82
2023-04-12T13:57:37.286Z,26.18
2023-04-12T14:02:40.292Z,26.25
2023-04-12T14:07:43.442Z,25.87
2023-04-12T14:12:47.013Z,25.14
2023-04-12T14:17:49.954Z,24.25
2023-04-12T14:22:53.012Z,24.63
2023-04-12T14:27:55.931Z,23.33
2023-04-12T14:32:59.109Z,23.56
2023-04-12T14:38:02.598Z,22.50
2023-04-12T14:43:05.879Z,22.82
2023-04-12T14:48:09.635Z,22.68
2023-04-12T14:53:13.874Z,21.78
2023-04-12T14:58:17.313Z,21.76
2023-04-12T15:03:21.281Z,22.65
2023-04-12T15:08:24.529Z,22.66
2023-04-12T15:13:33.556Z,22.11
2023-04-12T15:18:39.482Z,22.15
2023-04-12T15:23:42.616Z,22.38
2023-04-12T15:28:46.259Z,21.48
2023-04-12T15:33:50.610Z,21.96
2023-04-12T15:38:54.431Z,22.67
2023-04-12T15:43:57.659Z,22.34
2023-04-12T15:49:01.390Z,23.23
2023-04-12T15:54:04.615Z,23.79
2023-04-12T15:59:09.247Z,24.82
2023-04-12T16:04:12.556Z,25.38
2023-04-12T16:09:16.734Z,26.11
2023-04-12T16:14:19.590Z,26.82
2023-04-12T16:19:23.512Z,27.11
2023-04-12T16:24:26.806Z,27.11
2023-04-12T16:29:31.638Z,28.38
2023-04-12T16:34:35.083Z,29.03
2023-04-12T16:39:37.975Z,29.98
2023-04-12T16:44:41.450Z,29.99
2023-04-12T16:49:44.472Z,30.71
2023-04-12T16:54:49.170Z,32.02
2023-04-12T16:59:53.464Z,33.23
2023-04-12T17:04:56.750Z,33.50
2023-04-12T17:10:00.050Z,33.73
2023-04-12T17:15:04.480Z,34.34
2023-04-12T17:20:12.921Z,35.33
2023-04-12T17:25:16.787Z,36.88
2023-04-12T17:30:21.238Z,37.79
2023-04-12T17:35:24.188Z,38.47
2023-04-12T17:40:27.316Z,39.43
2023-04-12T17:45:30.940Z,40.02
2023-04-12T17:50:33.879Z,40.74
2023-04-12T17:55:37.615Z,40.86
2023-04-12T18:00:40.754Z,41.10
2023-04-12T18:05:46.193Z,42.39
2023-04-12T18:10:49.329Z,43.70
2023-04-12T18:15:52.459Z,42.87
2023-04-12T18:20:56.081Z,43.80
2023-04-12T18:25:59.309Z,44.02
2023-04-12T18:31:04.811Z,43.96
2023-04-12T18:36:09.992Z,44.75
2023-04-12T18:41:18.286Z,45.46
2023-04-12T18:46:21.769Z,45.18
2023-04-12T18:51:24.984Z,45.70
2023-04-12T18:56:28.376Z,46.66
2023-04-12T19:01:32.130Z,46.89
2023-04-12T19:06:37.188Z,46.83
2023-04-12T19:11:40.230Z,47.06
2023-04-12T19:16:43.301Z,47.63
2023-04-12T19:21:46.529Z,47.83
2023-04-12T19:26:50.588Z,48.08
2023-04-12T19:31:53.986Z,48.41
2023-04-12T19:36:57.040Z,48.87
2023-04-12T19:42:03.505Z,50.23
2023-04-12T19:47:06.691Z,50.28
2023-04-12T19:52:11.073Z,50.61
2023-04-12T19:57:14.160Z,50.78
2023-04-12T20:02:17.255Z,50.88
2023-04-12T20:07:21.045Z,51.65
2023-04-12T20:12:24.063Z,52.11
2023-04-12T20:17:28.482Z,53.38
2023-04-12T20:22:31.823Z,52.70
2023-04-12T20:27:36.643Z,53.81
2023-04-12T20:32:39.881Z,54.90
2023-04-12T20:37:43.311Z,54.72
2023-04-12T20:42:47.258Z,56.03
2023-04-12T20:47:51.403Z,56.32
2023-04-12T20:52:56.281Z,56.36
2023-04-12T20:58:00.769Z,56.69
2023-04-12T21:03:05.237Z,56.11
2023-04-12T21:08:08.374Z,56.32
2023-04-12T21:13:12.701Z,56.64
2023-04-12T21:18:17.298Z,57.01
2023-04-12T21:23:20.373Z,57.53
2023-04-12T21:28:24.534Z,58.00
2023-04-12T21:33:27.680Z,57.60
2023-04-12T21:38:30.780Z,58.50
2023-04-12T21:43:33.870Z,58.71
2023-04-12T21:48:37.091Z,59.31
2023-04-12T21:53:40.201Z,59.41
2023-04-12T21:58:43.757Z,59.89
2023-04-12T22:03:46.965Z,60.37
2023-04-12T22:08:50.017Z,60.22
2023-04-12T22:13:53.379Z,60.52
2023-04-12T22:19:05.234Z,60.82
2023-04-12T22:24:08.388Z,61.66
2023-04-12T22:29:11.438Z,61.69
2023-04-12T22:34:14.650Z,62.00
2023-04-12T22:39:22.520Z,62.49
2023-04-12T22:44:27.158Z,63.70
2023-04-12T22:49:30.598Z,63.27
2023-04-12T22:54:34.452Z,63.14
2023-04-12T22:59:37.490Z,63.37
2023-04-12T23:04:42.550Z,63.21
2023-04-12T23:09:47.317Z,63.67
2023-04-12T23:14:50.975Z,63.96
2023-04-12T23:19:54.058Z,63.87
2023-04-12T23:24:57.362Z,63.00
2023-04-12T23:30:00.137Z,63.15
2023-04-12T23:35:03.533Z,63.34
2023-04-12T23:40:10.898Z,62.94
2023-04-12T23:45:15.145Z,63.27
2023-04-12T23:50:18.149Z,63.93
2023-04-12T23:55:21.225Z,63.49
